Time,TemperatureF,DewpointF,PressureIn,WindDirection,WindDirectionDegrees,WindSpeedMPH,WindSpeedGustMPH,Humidity,HourlyPrecipIn,Conditions,Clouds,dailyrainin,SoftwareType,DateUTC
2013-05-21 00:14:00,68.2,65.8,29.91,NNW,337,0.0,-999.0,92,-99.99,,,0.00,Acu-Link.com,2013-05-21 04:14:00,
2013-05-21 00:29:00,68.2,65.8,29.91,NNW,337,0.0,-999.0,92,-99.99,,,0.00,Acu-Link.com,2013-05-21 04:29:00,
2013-05-21 00:45:00,68.2,66.1,29.90,NNW,337,0.0,-999.0,93,-99.99,,,0.00,Acu-Link.com,2013-05-21 04:45:00,
2013-05-21 01:00:00,68.0,65.9,29.90,NNW,337,0.0,-999.0,93,-99.99,,,0.00,Acu-Link.com,2013-05-21 05:00:00,
2013-05-21 01:15:00,67.8,65.7,29.90,NE,45,0.0,-999.0,93,-99.99,,,0.00,Acu-Link.com,2013-05-21 05:15:00,
2013-05-21 01:30:00,67.8,65.7,29.90,NE,45,0.0,-999.0,93,-99.99,,,0.00,Acu-Link.com,2013-05-21 05:30:00,
2013-05-21 01:45:00,67.8,65.7,29.90,West,270,0.0,-999.0,93,-99.99,,,0.00,Acu-Link.com,2013-05-21 05:45:00,
2013-05-21 02:01:00,67.5,65.4,29.89,West,270,0.0,-999.0,93,-99.99,,,0.00,Acu-Link.com,2013-05-21 06:01:00,
2013-05-21 02:16:00,67.5,65.7,29.89,SW,225,0.0,-999.0,94,-99.99,,,0.00,Acu-Link.com,2013-05-21 06:16:00,
2013-05-21 02:31:00,67.1,65.3,29.89,SW,225,0.0,-999.0,94,-99.99,,,0.00,Acu-Link.com,2013-05-21 06:31:00,
2013-05-21 02:47:00,66.7,64.9,29.88,SSW,202,0.0,-999.0,94,-99.99,,,0.00,Acu-Link.com,2013-05-21 06:47:00,
2013-05-21 03:02:00,66.7,64.9,29.88,SSW,202,0.0,-999.0,94,-99.99,,,0.00,Acu-Link.com,2013-05-21 07:02:00,
2013-05-21 03:17:00,66.2,64.4,29.88,SSW,202,0.0,-999.0,94,-99.99,,,0.00,Acu-Link.com,2013-05-21 07:17:00,
2013-05-21 03:33:00,66.2,64.4,29.89,SSW,202,0.0,-999.0,94,-99.99,,,0.00,Acu-Link.com,2013-05-21 07:33:00,
2013-05-21 03:48:00,66.2,64.4,29.89,SSW,202,0.0,-999.0,94,-99.99,,,0.00,Acu-Link.com,2013-05-21 07:48:00,
2013-05-21 04:03:00,66.2,64.4,29.89,SSW,202,0.0,-999.0,94,-99.99,,,0.00,Acu-Link.com,2013-05-21 08:03:00,
2013-05-21 04:18:00,66.2,64.4,29.89,SSW,202,0.0,-999.0,94,-99.99,,,0.00,Acu-Link.com,2013-05-21 08:18:00,
2013-05-21 04:34:00,66.2,64.4,29.89,SSW,202,0.0,-999.0,94,-99.99,,,0.00,Acu-Link.com,2013-05-21 08:34:00,
2013-05-21 04:49:00,66.2,64.7,29.89,NNW,337,0.0,-999.0,95,-99.99,,,0.00,Acu-Link.com,2013-05-21 08:49:00,
2013-05-21 05:04:00,66.2,64.7,29.89,NNW,337,0.0,-999.0,95,-99.99,,,0.00,Acu-Link.com,2013-05-21 09:04:00,
2013-05-21 05:19:00,66.0,64.5,29.88,NNW,337,0.0,-999.0,95,-99.99,,,0.00,Acu-Link.com,2013-05-21 09:19:00,
2013-05-21 05:34:00,65.7,64.2,29.89,NNW,337,0.0,-999.0,95,-99.99,,,0.00,Acu-Link.com,2013-05-21 09:34:00,
2013-05-21 05:49:00,65.3,63.8,29.89,SSE,157,0.0,-999.0,95,-99.99,,,0.00,Acu-Link.com,2013-05-21 09:49:00,
2013-05-21 06:04:00,65.1,63.6,29.89,South,180,0.0,-999.0,95,-99.99,,,0.00,Acu-Link.com,2013-05-21 10:04:00,
2013-05-21 06:20:00,65.1,63.6,29.90,South,180,0.0,-999.0,95,-99.99,,,0.00,Acu-Link.com,2013-05-21 10:20:00,
2013-05-21 06:35:00,65.1,63.6,29.90,West,270,0.0,-999.0,95,-99.99,,,0.00,Acu-Link.com,2013-05-21 10:35:00,
2013-05-21 06:50:00,64.9,63.4,29.91,West,270,0.0,-999.0,95,-99.99,,,0.00,Acu-Link.com,2013-05-21 10:50:00,
2013-05-21 07:05:00,65.1,63.6,29.91,West,270,0.0,-999.0,95,-99.99,,,0.00,Acu-Link.com,2013-05-21 11:05:00,
2013-05-21 07:21:00,65.3,63.8,29.91,West,270,0.0,-999.0,95,-99.99,,,0.00,Acu-Link.com,2013-05-21 11:21:00,
2013-05-21 07:36:00,65.8,64.3,29.90,West,270,0.0,-999.0,95,-99.99,,,0.00,Acu-Link.com,2013-05-21 11:36:00,
2013-05-21 07:51:00,66.6,65.1,29.91,West,270,0.0,-999.0,95,-99.99,,,0.00,Acu-Link.com,2013-05-21 11:51:00,
2013-05-21 08:07:00,68.0,66.8,29.91,NW,315,0.0,-999.0,96,-99.99,,,0.00,Acu-Link.com,2013-05-21 12:07:00,
2013-05-21 08:22:00,70.7,67.6,29.92,NW,315,0.0,-999.0,90,-99.99,,,0.00,Acu-Link.com,2013-05-21 12:22:00,
2013-05-21 08:37:00,73.2,69.4,29.92,WNW,292,0.0,-999.0,88,-99.99,,,0.00,Acu-Link.com,2013-05-21 12:37:00,
2013-05-21 08:52:00,75.0,69.5,29.91,NNW,337,0.0,-999.0,83,-99.99,,,0.00,Acu-Link.com,2013-05-21 12:52:00,
2013-05-21 09:08:00,75.7,70.2,29.92,West,270,0.0,-999.0,83,-99.99,,,0.00,Acu-Link.com,2013-05-21 13:08:00,
2013-05-21 09:23:00,76.1,70.2,29.92,SE,135,0.0,-999.0,82,-99.99,,,0.00,Acu-Link.com,2013-05-21 13:23:00,
2013-05-21 09:38:00,77.0,70.3,29.93,NNW,337,0.0,-999.0,80,-99.99,,,0.00,Acu-Link.com,2013-05-21 13:38:00,
2013-05-21 09:54:00,77.9,70.8,29.93,West,270,0.0,-999.0,79,-99.99,,,0.00,Acu-Link.com,2013-05-21 13:54:00,
2013-05-21 10:09:00,78.6,71.1,29.92,West,270,0.0,-999.0,78,-99.99,,,0.00,Acu-Link.com,2013-05-21 14:09:00,
2013-05-21 10:24:00,79.3,69.5,29.92,East,90,0.0,-999.0,72,-99.99,,,0.00,Acu-Link.com,2013-05-21 14:24:00,
2013-05-21 10:40:00,79.7,69.0,29.92,South,180,0.0,-999.0,70,-99.99,,,0.00,Acu-Link.com,2013-05-21 14:40:00,
2013-05-21 10:55:00,81.1,68.6,29.93,NW,315,0.0,-999.0,66,-99.99,,,0.00,Acu-Link.com,2013-05-21 14:55:00,
2013-05-21 11:10:00,81.9,69.0,29.92,NW,315,0.0,-999.0,65,-99.99,,,0.00,Acu-Link.com,2013-05-21 15:10:00,
2013-05-21 11:25:00,82.2,69.7,29.92,ESE,112,0.0,-999.0,66,-99.99,,,0.00,Acu-Link.com,2013-05-21 15:25:00,
2013-05-21 11:40:00,82.9,69.9,29.91,SSW,202,0.0,-999.0,65,-99.99,,,0.00,Acu-Link.com,2013-05-21 15:40:00,
2013-05-21 11:55:00,84.0,69.1,29.91,WNW,292,1.7,-999.0,61,-99.99,,,0.00,Acu-Link.com,2013-05-21 15:55:00,
2013-05-21 12:11:00,84.0,70.0,29.91,NE,45,0.0,-999.0,63,-99.99,,,0.00,Acu-Link.com,2013-05-21 16:11:00,
2013-05-21 12:26:00,83.3,70.3,29.90,ESE,112,2.7,-999.0,65,-99.99,,,0.00,Acu-Link.com,2013-05-21 16:26:00,
2013-05-21 12:42:00,83.7,69.3,29.90,NW,315,0.0,-999.0,62,-99.99,,,0.00,Acu-Link.com,2013-05-21 16:42:00,
2013-05-21 12:57:00,84.9,67.9,29.91,NW,315,0.0,-999.0,57,-99.99,,,0.00,Acu-Link.com,2013-05-21 16:57:00,
2013-05-21 13:12:00,85.6,67.5,29.90,NW,315,0.0,-999.0,55,-99.99,,,0.00,Acu-Link.com,2013-05-21 17:12:00,
2013-05-21 13:27:00,85.5,69.5,29.90,SE,135,0.0,-999.0,59,-99.99,,,0.00,Acu-Link.com,2013-05-21 17:27:00,
2013-05-21 13:43:00,86.4,69.3,29.88,WNW,292,0.0,-999.0,57,-99.99,,,0.00,Acu-Link.com,2013-05-21 17:43:00,
2013-05-21 13:58:00,86.5,67.8,29.87,WNW,292,0.0,-999.0,54,-99.99,,,0.00,Acu-Link.com,2013-05-21 17:58:00,
2013-05-21 14:13:00,86.7,66.9,29.86,NNE,22,0.0,-999.0,52,-99.99,,,0.00,Acu-Link.com,2013-05-21 18:13:00,
2013-05-21 14:29:00,87.4,68.7,29.86,NNE,22,0.0,-999.0,54,-99.99,,,0.00,Acu-Link.com,2013-05-21 18:29:00,
2013-05-21 14:44:00,86.2,68.6,29.85,SW,225,0.0,-999.0,56,-99.99,,,0.00,Acu-Link.com,2013-05-21 18:44:00,
2013-05-21 14:59:00,89.4,67.7,29.86,ENE,67,0.0,-999.0,49,-99.99,,,0.00,Acu-Link.com,2013-05-21 18:59:00,
2013-05-21 15:14:00,88.7,68.2,29.85,East,90,0.0,-999.0,51,-99.99,,,0.00,Acu-Link.com,2013-05-21 19:14:00,
2013-05-21 15:29:00,89.4,67.7,29.83,SW,225,0.0,-999.0,49,-99.99,,,0.00,Acu-Link.com,2013-05-21 19:29:00,
2013-05-21 15:45:00,89.6,66.7,29.82,WNW,292,0.0,-999.0,47,-99.99,,,0.00,Acu-Link.com,2013-05-21 19:45:00,
2013-05-21 16:00:00,89.6,68.5,29.82,SSW,202,0.0,-999.0,50,-99.99,,,0.00,Acu-Link.com,2013-05-21 20:00:00,
2013-05-21 16:15:00,87.8,67.9,29.82,NE,45,0.0,-999.0,52,-99.99,,,0.00,Acu-Link.com,2013-05-21 20:15:00,
2013-05-21 16:30:00,88.3,67.8,29.81,SW,225,0.0,-999.0,51,-99.99,,,0.00,Acu-Link.com,2013-05-21 20:30:00,
2013-05-21 16:45:00,88.9,67.2,29.81,West,270,0.0,-999.0,49,-99.99,,,0.00,Acu-Link.com,2013-05-21 20:45:00,
2013-05-21 17:01:00,88.5,68.6,29.81,WNW,292,0.0,-999.0,52,-99.99,,,0.00,Acu-Link.com,2013-05-21 21:01:00,
2013-05-21 17:16:00,87.8,66.2,29.80,ESE,112,0.0,-999.0,49,-99.99,,,0.00,Acu-Link.com,2013-05-21 21:16:00,
2013-05-21 17:31:00,87.4,67.0,29.81,WSW,247,0.0,-999.0,51,-99.99,,,0.00,Acu-Link.com,2013-05-21 21:31:00,
2013-05-21 17:47:00,86.4,67.2,29.79,SSW,202,0.0,-999.0,53,-99.99,,,0.00,Acu-Link.com,2013-05-21 21:47:00,
2013-05-21 18:02:00,86.0,65.2,29.79,NE,45,0.0,-999.0,50,-99.99,,,0.00,Acu-Link.com,2013-05-21 22:02:00,
2013-05-21 18:17:00,84.9,66.9,29.80,SSW,202,0.0,-999.0,55,-99.99,,,0.00,Acu-Link.com,2013-05-21 22:17:00,
2013-05-21 18:33:00,84.6,67.1,29.81,SW,225,0.0,-999.0,56,-99.99,,,0.00,Acu-Link.com,2013-05-21 22:33:00,
2013-05-21 18:48:00,83.3,67.0,29.80,SW,225,0.0,-999.0,58,-99.99,,,0.00,Acu-Link.com,2013-05-21 22:48:00,
2013-05-21 19:03:00,81.7,66.9,29.79,SSW,202,0.0,-999.0,61,-99.99,,,0.00,Acu-Link.com,2013-05-21 23:03:00,
2013-05-21 19:19:00,80.1,65.4,29.80,SSE,157,4.7,-999.0,61,-99.99,,,0.00,Acu-Link.com,2013-05-21 23:19:00,
2013-05-21 19:34:00,78.6,65.4,29.81,ESE,112,0.0,-999.0,64,-99.99,,,0.00,Acu-Link.com,2013-05-21 23:34:00,
2013-05-21 19:50:00,78.1,65.4,29.80,South,180,0.0,-999.0,65,-99.99,,,0.00,Acu-Link.com,2013-05-21 23:50:00,
2013-05-21 20:05:00,77.2,64.9,29.82,East,90,0.0,-999.0,66,-99.99,,,0.00,Acu-Link.com,2013-05-22 00:05:00,
2013-05-21 20:20:00,76.8,65.4,29.82,NNW,337,0.0,-999.0,68,-99.99,,,0.00,Acu-Link.com,2013-05-22 00:20:00,
2013-05-21 20:35:00,76.5,65.6,29.82,NNW,337,2.7,-999.0,69,-99.99,,,0.00,Acu-Link.com,2013-05-22 00:35:00,
2013-05-21 20:51:00,76.1,65.6,29.83,SSW,202,0.0,-999.0,70,-99.99,,,0.00,Acu-Link.com,2013-05-22 00:51:00,
2013-05-21 21:06:00,75.2,65.1,29.84,WSW,247,0.0,-999.0,71,-99.99,,,0.00,Acu-Link.com,2013-05-22 01:06:00,
2013-05-21 21:21:00,74.7,64.2,29.84,West,270,0.0,-999.0,70,-99.99,,,0.00,Acu-Link.com,2013-05-22 01:21:00,
2013-05-21 21:37:00,73.4,63.8,29.83,South,180,0.0,-999.0,72,-99.99,,,0.00,Acu-Link.com,2013-05-22 01:37:00,
2013-05-21 21:52:00,72.9,63.7,29.84,SE,135,0.0,-999.0,73,-99.99,,,0.00,Acu-Link.com,2013-05-22 01:52:00,
2013-05-21 22:07:00,72.1,63.7,29.84,WNW,292,0.0,-999.0,75,-99.99,,,0.00,Acu-Link.com,2013-05-22 02:07:00,
2013-05-21 22:23:00,71.8,64.6,29.85,South,180,0.0,-999.0,78,-99.99,,,0.00,Acu-Link.com,2013-05-22 02:23:00,
2013-05-21 22:38:00,71.6,64.4,29.86,West,270,0.0,-999.0,78,-99.99,,,0.00,Acu-Link.com,2013-05-22 02:38:00,
2013-05-21 22:53:00,70.9,64.8,29.86,NNW,337,0.0,-999.0,81,-99.99,,,0.00,Acu-Link.com,2013-05-22 02:53:00,
2013-05-21 23:08:00,70.5,64.7,29.87,SSE,157,0.0,-999.0,82,-99.99,,,0.00,Acu-Link.com,2013-05-22 03:08:00,
2013-05-21 23:24:00,70.2,63.7,29.87,SSE,157,0.0,-999.0,80,-99.99,,,0.00,Acu-Link.com,2013-05-22 03:24:00,
2013-05-21 23:39:00,70.0,63.5,29.87,South,180,0.0,-999.0,80,-99.99,,,0.00,Acu-Link.com,2013-05-22 03:39:00,
2013-05-21 23:54:00,69.8,63.0,29.87,West,270,0.0,-999.0,79,-99.99,,,0.00,Acu-Link.com,2013-05-22 03:54:00,